createdAt,value
2016-03-06T00:00:51.904Z,99.99
2016-03-06T00:01:51.876Z,99.99
2016-03-06T00:02:51.847Z,99.99
2016-03-06T00:03:51.818Z,99.99
2016-03-06T00:04:51.790Z,99.99
2016-03-06T00:05:51.761Z,99.99
2016-03-06T00:06:51.722Z,99.99
2016-03-06T00:07:51.694Z,99.99
2016-03-06T00:08:51.664Z,99.99
2016-03-06T00:09:51.636Z,99.99
2016-03-06T00:10:51.606Z,99.99
2016-03-06T00:11:51.580Z,99.99
2016-03-06T00:12:51.553Z,99.99
2016-03-06T00:13:51.524Z,99.99
2016-03-06T00:14:51.496Z,99.99
2016-03-06T00:15:51.498Z,99.99
2016-03-06T00:16:51.423Z,99.99
2016-03-06T00:17:51.409Z,99.99
2016-03-06T00:18:51.381Z,99.99
2016-03-06T00:19:51.337Z,99.99
2016-03-06T00:20:51.309Z,99.99
2016-03-06T00:21:51.295Z,99.99
2016-03-06T00:22:51.251Z,99.99
2016-03-06T00:23:51.222Z,99.99
2016-03-06T00:24:51.194Z,99.99
2016-03-06T00:25:51.165Z,99.99
2016-03-06T00:26:51.137Z,99.86
2016-03-06T00:27:51.108Z,99.99
2016-03-06T00:28:51.081Z,99.99
2016-03-06T00:29:51.051Z,99.99
2016-03-06T00:30:51.023Z,99.99
2016-03-06T00:31:50.994Z,99.96
2016-03-06T00:32:50.950Z,99.99
2016-03-06T00:33:50.921Z,99.99
2016-03-06T00:34:50.909Z,99.99
2016-03-06T00:35:50.864Z,99.99
2016-03-06T00:36:50.836Z,99.99
2016-03-06T00:37:50.807Z,99.99
2016-03-06T00:38:50.778Z,99.99
2016-03-06T00:39:50.750Z,99.99
2016-03-06T00:40:50.721Z,99.99
2016-03-06T00:41:50.693Z,99.99
2016-03-06T00:42:50.664Z,99.86
2016-03-06T00:43:50.635Z,99.86
2016-03-06T00:44:50.608Z,99.99
2016-03-06T00:45:50.563Z,99.96
2016-03-06T00:46:50.535Z,99.96
2016-03-06T00:47:50.506Z,99.77
2016-03-06T00:48:50.493Z,99.96
2016-03-06T00:49:50.448Z,99.99
2016-03-06T00:50:50.421Z,99.99
2016-03-06T00:51:50.392Z,99.99
2016-03-06T00:52:50.363Z,99.99
2016-03-06T00:53:50.350Z,99.99
2016-03-06T00:54:50.306Z,99.99
2016-03-06T00:55:50.277Z,99.99
2016-03-06T00:56:50.249Z,99.99
2016-03-06T00:57:50.204Z,99.99
2016-03-06T00:58:50.176Z,99.99
2016-03-06T00:59:50.147Z,99.99
2016-03-06T01:00:50.120Z,99.99
2016-03-06T01:01:50.090Z,99.99
2016-03-06T01:02:50.062Z,99.99
2016-03-06T01:03:50.033Z,99.99
2016-03-06T01:04:50.005Z,99.99
2016-03-06T01:05:49.975Z,99.99
2016-03-06T01:06:49.948Z,99.99
2016-03-06T01:07:49.903Z,99.99
2016-03-06T01:08:49.906Z,99.99
2016-03-06T01:09:49.846Z,99.99
2016-03-06T01:10:49.822Z,99.99
2016-03-06T01:11:49.794Z,99.99
2016-03-06T01:12:49.766Z,99.99
2016-03-06T01:13:49.737Z,99.99
2016-03-06T01:14:49.708Z,99.99
2016-03-06T01:15:49.664Z,99.99
2016-03-06T01:16:49.651Z,99.99
2016-03-06T01:17:49.623Z,99.99
2016-03-06T01:18:49.579Z,99.96
2016-03-06T01:19:49.550Z,99.99
2016-03-06T01:20:49.521Z,99.99
2016-03-06T01:21:49.493Z,99.99
2016-03-06T01:22:49.464Z,99.96
2016-03-06T01:23:49.451Z,99.99
2016-03-06T01:24:49.407Z,99.99
2016-03-06T01:25:49.394Z,99.99
2016-03-06T01:26:49.334Z,99.99
2016-03-06T01:27:49.306Z,99.99
2016-03-06T01:28:49.293Z,99.99
2016-03-06T01:29:49.248Z,99.99
2016-03-06T01:30:49.220Z,99.86
2016-03-06T01:31:49.191Z,99.99
2016-03-06T01:32:49.163Z,99.99
2016-03-06T01:33:49.134Z,99.86
2016-03-06T01:34:49.106Z,99.99
2016-03-06T01:35:49.077Z,99.99
2016-03-06T01:36:49.033Z,99.99
2016-03-06T01:37:49.004Z,99.99
2016-03-06T01:38:48.991Z,99.99
2016-03-06T01:39:48.947Z,99.99
2016-03-06T01:40:48.919Z,99.58
2016-03-06T01:41:48.890Z,99.86
2016-03-06T01:42:48.862Z,99.86
2016-03-06T01:43:48.833Z,99.81
2016-03-06T01:44:48.805Z,99.77
2016-03-06T01:45:48.776Z,99.99
2016-03-06T01:46:48.732Z,99.99
2016-03-06T01:47:48.703Z,99.99
2016-03-06T01:48:48.674Z,99.99
2016-03-06T01:49:48.646Z,99.99
2016-03-06T01:50:48.618Z,99.99
2016-03-06T01:51:48.589Z,99.99
2016-03-06T01:52:48.560Z,99.9
2016-03-06T01:53:48.531Z,99.99
2016-03-06T01:54:48.503Z,99.99
2016-03-06T01:55:48.475Z,99.99
2016-03-06T01:56:48.431Z,99.99
2016-03-06T01:57:48.402Z,99.99
2016-03-06T01:58:48.373Z,99.99
2016-03-06T01:59:48.345Z,99.99
2016-03-06T02:00:48.317Z,99.99
2016-03-06T02:01:48.288Z,99.99
2016-03-06T02:02:48.259Z,99.99
2016-03-06T02:03:48.230Z,99.99
2016-03-06T02:04:48.202Z,99.99
2016-03-06T02:05:48.174Z,99.99
2016-03-06T02:06:48.130Z,99.99
2016-03-06T02:07:48.100Z,99.99
2016-03-06T02:08:48.072Z,99.99
2016-03-06T02:09:48.074Z,99.99
2016-03-06T02:10:48.015Z,99.99
2016-03-06T02:11:47.986Z,99.99
2016-03-06T02:12:47.958Z,99.99
2016-03-06T02:13:47.929Z,99.9
2016-03-06T02:14:47.901Z,99.99
2016-03-06T02:15:47.857Z,99.99
2016-03-06T02:16:47.829Z,99.71
2016-03-06T02:17:47.799Z,99.81
2016-03-06T02:18:47.771Z,99.71
2016-03-06T02:19:47.742Z,99.99
2016-03-06T02:20:47.714Z,99.99
2016-03-06T02:21:47.685Z,99.99
2016-03-06T02:22:47.656Z,99.9
2016-03-06T02:23:47.612Z,99.99
2016-03-06T02:24:47.584Z,99.99
2016-03-06T02:25:47.555Z,99.99
2016-03-06T02:26:47.527Z,99.81
2016-03-06T02:27:47.498Z,99.99
2016-03-06T02:28:47.470Z,99.99
2016-03-06T02:29:47.441Z,99.9
2016-03-06T02:30:47.412Z,99.9
2016-03-06T02:31:47.369Z,99.99
2016-03-06T02:32:47.340Z,99.99
2016-03-06T02:33:47.311Z,99.99
2016-03-06T02:34:47.283Z,99.81
2016-03-06T02:35:47.254Z,99.99
2016-03-06T02:36:47.226Z,99.99
2016-03-06T02:37:47.197Z,99.99
2016-03-06T02:38:47.169Z,99.9
2016-03-06T02:39:47.124Z,99.99
2016-03-06T02:40:47.096Z,99.99
2016-03-06T02:41:47.066Z,99.99
2016-03-06T02:42:47.038Z,99.99
2016-03-06T02:43:47.010Z,99.99
2016-03-06T02:44:46.982Z,99.99
2016-03-06T02:45:46.953Z,99.99
2016-03-06T02:46:46.924Z,99.99
2016-03-06T02:47:46.880Z,99.99
2016-03-06T02:48:46.868Z,99.99
2016-03-06T02:49:46.823Z,99.99
2016-03-06T02:50:46.795Z,99.99
2016-03-06T02:51:46.765Z,99.99
2016-03-06T02:52:46.737Z,99.99
2016-03-06T02:53:46.709Z,99.99
2016-03-06T02:54:46.681Z,99.99
2016-03-06T02:55:46.651Z,99.99
2016-03-06T02:56:46.607Z,99.99
2016-03-06T02:57:46.578Z,99.99
2016-03-06T02:58:46.550Z,99.99
2016-03-06T02:59:46.522Z,99.99
2016-03-06T03:00:46.493Z,99.99
2016-03-06T03:01:46.464Z,99.99
2016-03-06T03:02:46.437Z,99.99
2016-03-06T03:03:46.423Z,99.99
2016-03-06T03:04:46.364Z,99.99
2016-03-06T03:05:46.335Z,99.99
2016-03-06T03:06:46.306Z,99.99
2016-03-06T03:07:46.277Z,99.99
2016-03-06T03:08:46.250Z,99.99
2016-03-06T03:09:46.221Z,99.81
2016-03-06T03:10:46.192Z,99.81
2016-03-06T03:11:46.147Z,99.99
2016-03-06T03:12:46.119Z,99.99
2016-03-06T03:13:46.090Z,99.9
2016-03-06T03:14:46.078Z,99.71
2016-03-06T03:15:46.033Z,99.33
2016-03-06T03:16:46.005Z,99.15
2016-03-06T03:17:45.976Z,99.99
2016-03-06T03:18:45.949Z,99.33
2016-03-06T03:19:45.904Z,99.38
2016-03-06T03:20:45.876Z,99.15
2016-03-06T03:21:45.846Z,99.33
2016-03-06T03:22:45.818Z,99.99
2016-03-06T03:23:45.789Z,99.99
2016-03-06T03:24:45.762Z,99.43
2016-03-06T03:25:45.717Z,99.99
2016-03-06T03:26:45.688Z,99.29
2016-03-06T03:27:45.659Z,99.99
2016-03-06T03:28:45.631Z,99.99
2016-03-06T03:29:45.602Z,99.57
2016-03-06T03:30:45.574Z,99.71
2016-03-06T03:31:45.545Z,99.81
2016-03-06T03:32:45.517Z,99.85
2016-03-06T03:33:45.472Z,99.95
2016-03-06T03:34:45.445Z,99.99
2016-03-06T03:35:45.416Z,99.1
2016-03-06T03:36:45.387Z,99.57
2016-03-06T03:37:45.358Z,99.29
2016-03-06T03:38:45.328Z,99.66
2016-03-06T03:39:45.286Z,99.29
2016-03-06T03:40:45.226Z,99.29
2016-03-06T03:41:45.181Z,99.57
2016-03-06T03:42:45.139Z,99.48
2016-03-06T03:43:45.096Z,99.38
2016-03-06T03:44:45.063Z,99.1
2016-03-06T03:45:45.028Z,99.29
2016-03-06T03:46:44.979Z,99.38
2016-03-06T03:47:44.944Z,99.29
2016-03-06T03:48:44.911Z,99.29
2016-03-06T03:49:44.881Z,99.1
2016-03-06T03:50:44.850Z,99.19
2016-03-06T03:51:44.819Z,99.29
2016-03-06T03:52:44.772Z,99.19
2016-03-06T03:53:44.758Z,99.1
2016-03-06T03:54:44.730Z,99.38
2016-03-06T03:55:44.685Z,99.48
2016-03-06T03:56:44.656Z,99.29
2016-03-06T03:57:44.628Z,99.19
2016-03-06T03:58:44.583Z,99.48
2016-03-06T03:59:44.554Z,99.38
2016-03-06T04:00:44.525Z,99.76
2016-03-06T04:01:44.497Z,99.57
2016-03-06T04:02:44.467Z,99.29
2016-03-06T04:03:44.438Z,99.95
2016-03-06T04:04:44.424Z,99.85
2016-03-06T04:05:44.366Z,99.99
2016-03-06T04:06:44.337Z,99.48
2016-03-06T04:07:44.307Z,99.76
2016-03-06T04:08:44.280Z,99.99
2016-03-06T04:09:44.251Z,99.95
2016-03-06T04:10:44.223Z,99.85
2016-03-06T04:11:44.194Z,99.99
2016-03-06T04:12:44.150Z,99.99
2016-03-06T04:13:44.121Z,99.99
2016-03-06T04:14:44.092Z,99.99
2016-03-06T04:15:44.064Z,99.99
2016-03-06T04:16:44.036Z,99.99
2016-03-06T04:17:43.992Z,99.99
2016-03-06T04:18:43.962Z,99.99
2016-03-06T04:19:43.934Z,99.99
2016-03-06T04:20:43.953Z,99.99
2016-03-06T04:21:43.877Z,99.99
2016-03-06T04:22:43.833Z,99.99
2016-03-06T04:23:43.805Z,99.99
2016-03-06T04:24:43.775Z,99.99
2016-03-06T04:25:43.747Z,99.99
2016-03-06T04:26:43.719Z,99.99
2016-03-06T04:27:43.691Z,99.99
2016-03-06T04:28:43.661Z,99.99
2016-03-06T04:29:43.617Z,99.99
2016-03-06T04:30:43.588Z,99.99
2016-03-06T04:31:43.561Z,99.99
2016-03-06T04:32:43.532Z,99.99
2016-03-06T04:33:43.502Z,99.99
2016-03-06T04:34:43.475Z,99.99
2016-03-06T04:35:43.446Z,99.99
2016-03-06T04:36:43.402Z,99.99
2016-03-06T04:37:43.373Z,99.99
2016-03-06T04:38:43.345Z,99.99
2016-03-06T04:39:43.316Z,99.99
2016-03-06T04:40:43.287Z,99.99
2016-03-06T04:41:43.259Z,99.99
2016-03-06T04:42:43.231Z,99.99
2016-03-06T04:43:43.187Z,99.99
2016-03-06T04:44:43.157Z,99.99
2016-03-06T04:45:43.129Z,99.99
2016-03-06T04:46:43.101Z,99.99
2016-03-06T04:47:43.072Z,99.99
2016-03-06T04:48:43.059Z,99.99
2016-03-06T04:49:43.015Z,99.99
2016-03-06T04:50:42.970Z,99.99
2016-03-06T04:51:42.942Z,99.99
2016-03-06T04:52:42.914Z,99.99
2016-03-06T04:53:42.886Z,99.99
2016-03-06T04:54:42.842Z,99.99
2016-03-06T04:55:42.828Z,99.99
2016-03-06T04:56:42.788Z,99.99
2016-03-06T04:57:42.775Z,99.99
2016-03-06T04:58:42.732Z,99.99
2016-03-06T04:59:42.688Z,99.99
2016-03-06T05:00:42.658Z,99.99
2016-03-06T05:01:42.630Z,99.99
2016-03-06T05:02:42.601Z,99.99
2016-03-06T05:03:42.574Z,99.99
2016-03-06T05:04:42.544Z,99.99
2016-03-06T05:05:42.516Z,99.99
2016-03-06T05:06:42.471Z,99.99
2016-03-06T05:07:42.443Z,99.99
2016-03-06T05:08:42.415Z,99.99
2016-03-06T05:09:42.386Z,99.99
2016-03-06T05:10:42.357Z,99.99
2016-03-06T05:11:42.329Z,99.99
2016-03-06T05:12:42.300Z,99.99
2016-03-06T05:13:42.256Z,99.99
2016-03-06T05:14:42.228Z,99.99
2016-03-06T05:15:42.199Z,99.99
2016-03-06T05:16:42.170Z,99.85
2016-03-06T05:17:42.142Z,99.85
2016-03-06T05:18:42.114Z,99.99
2016-03-06T05:19:42.069Z,99.99
2016-03-06T05:20:42.056Z,99.99
2016-03-06T05:21:42.012Z,99.99
2016-03-06T05:22:41.983Z,99.99
2016-03-06T05:23:41.955Z,99.99
2016-03-06T05:24:41.927Z,99.99
2016-03-06T05:25:41.898Z,99.99
2016-03-06T05:26:41.854Z,99.99
2016-03-06T05:27:41.825Z,99.99
2016-03-06T05:28:41.796Z,99.99
2016-03-06T05:29:41.769Z,99.99
2016-03-06T05:30:41.739Z,99.99
2016-03-06T05:31:41.710Z,99.99
2016-03-06T05:32:41.682Z,99.99
2016-03-06T05:33:41.638Z,99.99
2016-03-06T05:34:41.610Z,99.99
2016-03-06T05:35:41.581Z,99.99
2016-03-06T05:36:41.552Z,99.99
2016-03-06T05:37:41.524Z,99.99
2016-03-06T05:38:41.496Z,99.99
2016-03-06T05:39:41.451Z,99.99
2016-03-06T05:40:41.422Z,99.99
2016-03-06T05:41:41.394Z,99.99
2016-03-06T05:42:41.365Z,99.99
2016-03-06T05:43:41.337Z,99.99
2016-03-06T05:44:41.309Z,99.99
2016-03-06T05:45:41.279Z,99.99
2016-03-06T05:46:41.236Z,99.99
2016-03-06T05:47:41.207Z,99.99
2016-03-06T05:48:41.178Z,99.99
2016-03-06T05:49:41.150Z,99.99
2016-03-06T05:50:41.122Z,99.99
2016-03-06T05:51:41.092Z,99.99
2016-03-06T05:52:41.064Z,99.99
2016-03-06T05:53:41.020Z,99.99
2016-03-06T05:54:40.991Z,99.99
2016-03-06T05:55:40.963Z,99.99
2016-03-06T05:56:40.934Z,99.99
2016-03-06T05:57:40.905Z,99.99
2016-03-06T05:58:40.877Z,99.99
2016-03-06T05:59:40.849Z,99.99
2016-03-06T06:00:40.819Z,99.99
2016-03-06T06:01:40.777Z,99.99
2016-03-06T06:02:40.747Z,99.99
2016-03-06T06:03:40.718Z,99.99
2016-03-06T06:04:40.691Z,99.99
2016-03-06T06:05:40.662Z,99.99
2016-03-06T06:06:40.632Z,99.99
2016-03-06T06:07:40.605Z,99.99
2016-03-06T06:08:40.576Z,99.99
2016-03-06T06:09:40.548Z,99.99
2016-03-06T06:10:40.504Z,99.99
2016-03-06T06:11:40.474Z,99.99
2016-03-06T06:12:40.462Z,99.99
2016-03-06T06:13:40.418Z,99.99
2016-03-06T06:14:40.389Z,99.99
2016-03-06T06:15:40.359Z,99.99
2016-03-06T06:16:40.332Z,99.99
2016-03-06T06:17:40.287Z,99.99
2016-03-06T06:18:40.259Z,99.99
2016-03-06T06:19:40.230Z,99.99
2016-03-06T06:20:40.202Z,99.99
2016-03-06T06:21:40.173Z,99.99
2016-03-06T06:22:40.145Z,99.99
2016-03-06T06:23:40.116Z,99.99
2016-03-06T06:24:40.088Z,99.99
2016-03-06T06:25:40.059Z,99.99
2016-03-06T06:26:40.030Z,99.99
2016-03-06T06:27:39.987Z,99.99
2016-03-06T06:28:39.958Z,99.99
2016-03-06T06:29:39.929Z,99.99
2016-03-06T06:30:39.900Z,99.99
2016-03-06T06:31:39.872Z,99.99
2016-03-06T06:32:39.844Z,99.99
2016-03-06T06:33:39.815Z,99.99
2016-03-06T06:34:39.786Z,99.99
2016-03-06T06:35:39.757Z,99.99
2016-03-06T06:36:39.730Z,99.99
2016-03-06T06:37:39.685Z,99.99
2016-03-06T06:38:39.656Z,99.99
2016-03-06T06:39:39.629Z,99.99
2016-03-06T06:40:39.599Z,99.99
2016-03-06T06:41:39.571Z,99.99
2016-03-06T06:42:39.542Z,99.99
2016-03-06T06:43:39.514Z,99.99
2016-03-06T06:44:39.485Z,99.99
2016-03-06T06:45:39.457Z,99.99
2016-03-06T06:46:39.428Z,99.99
2016-03-06T06:47:39.400Z,99.99
2016-03-06T06:48:39.371Z,99.99
2016-03-06T06:49:39.327Z,99.99
2016-03-06T06:50:39.298Z,99.99
2016-03-06T06:51:39.269Z,99.99
2016-03-06T06:52:39.241Z,99.99
2016-03-06T06:53:39.212Z,99.99
2016-03-06T06:54:39.183Z,99.99
2016-03-06T06:55:39.156Z,99.99
2016-03-06T06:56:39.127Z,99.99
2016-03-06T06:57:39.098Z,99.99
2016-03-06T06:58:39.069Z,99.99
2016-03-06T06:59:39.041Z,99.99
2016-03-06T07:00:39.013Z,99.99
2016-03-06T07:01:38.984Z,99.99
2016-03-06T07:02:38.955Z,99.99
2016-03-06T07:03:38.927Z,99.99
2016-03-06T07:04:38.899Z,99.99
2016-03-06T07:05:38.855Z,99.99
2016-03-06T07:06:38.831Z,99.99
2016-03-06T07:07:38.802Z,99.99
2016-03-06T07:08:38.773Z,99.99
2016-03-06T07:09:38.745Z,99.99
2016-03-06T07:10:38.717Z,99.99
2016-03-06T07:11:38.688Z,99.99
2016-03-06T07:12:38.659Z,99.99
2016-03-06T07:13:38.631Z,99.99
2016-03-06T07:14:38.603Z,99.99
2016-03-06T07:15:38.573Z,99.99
2016-03-06T07:16:38.545Z,99.99
2016-03-06T07:17:38.517Z,99.99
2016-03-06T07:18:38.488Z,99.99
2016-03-06T07:19:38.459Z,99.99
2016-03-06T07:20:38.430Z,99.99
2016-03-06T07:21:38.402Z,99.99
2016-03-06T07:22:38.374Z,99.96
2016-03-06T07:23:38.345Z,99.99
2016-03-06T07:24:38.300Z,99.99
2016-03-06T07:25:38.272Z,99.96
2016-03-06T07:26:38.260Z,99.58
2016-03-06T07:27:38.216Z,99.99
2016-03-06T07:28:38.186Z,99.99
2016-03-06T07:29:38.174Z,99.99
2016-03-06T07:30:38.130Z,99.99
2016-03-06T07:31:38.102Z,99.99
2016-03-06T07:32:38.072Z,99.99
2016-03-06T07:33:38.044Z,99.96
2016-03-06T07:34:38.015Z,99.86
2016-03-06T07:35:37.987Z,99.77
2016-03-06T07:36:37.974Z,99.77
2016-03-06T07:37:37.929Z,99.86
2016-03-06T07:38:37.901Z,99.96
2016-03-06T07:39:37.873Z,99.77
2016-03-06T07:40:37.843Z,99.86
2016-03-06T07:41:37.815Z,99.67
2016-03-06T07:42:37.787Z,99.67
2016-03-06T07:43:37.759Z,99.39
2016-03-06T07:44:37.729Z,99.29
2016-03-06T07:45:37.701Z,99.1
2016-03-06T07:46:37.673Z,99.1
2016-03-06T07:47:37.644Z,99.1
2016-03-06T07:48:37.615Z,99.2
2016-03-06T07:49:37.587Z,99.48
2016-03-06T07:50:37.558Z,99.39
2016-03-06T07:51:37.530Z,99.48
2016-03-06T07:52:37.500Z,99.39
2016-03-06T07:53:37.472Z,99.39
2016-03-06T07:54:37.444Z,99.25
2016-03-06T07:55:37.415Z,99.25
2016-03-06T07:56:37.386Z,98.96
2016-03-06T07:57:37.358Z,99.15
2016-03-06T07:58:37.330Z,99.29
2016-03-06T07:59:37.302Z,99.25
2016-03-06T08:00:37.272Z,99.06
2016-03-06T08:01:37.244Z,98.87
2016-03-06T08:02:37.216Z,99.06
2016-03-06T08:03:37.187Z,99.25
2016-03-06T08:04:37.158Z,99.25
2016-03-06T08:05:37.121Z,98.87
2016-03-06T08:06:37.094Z,98.96
2016-03-06T08:07:37.065Z,99.34
2016-03-06T08:08:37.052Z,99.25
2016-03-06T08:09:37.007Z,99.44
2016-03-06T08:10:36.979Z,99.72
2016-03-06T08:11:36.965Z,99.44
2016-03-06T08:12:36.922Z,99.72
2016-03-06T08:13:36.909Z,99.99
2016-03-06T08:14:36.896Z,99.82
2016-03-06T08:15:36.851Z,99.99
2016-03-06T08:16:36.823Z,99.91
2016-03-06T08:17:36.794Z,99.82
2016-03-06T08:18:36.767Z,99.91
2016-03-06T08:19:36.737Z,99.99
2016-03-06T08:20:36.709Z,99.99
2016-03-06T08:21:36.680Z,99.99
2016-03-06T08:22:36.653Z,99.99
2016-03-06T08:23:36.623Z,99.99
2016-03-06T08:24:36.594Z,99.99
2016-03-06T08:25:36.567Z,99.99
2016-03-06T08:26:36.538Z,99.99
2016-03-06T08:27:36.525Z,99.99
2016-03-06T08:28:36.496Z,99.99
2016-03-06T08:29:36.468Z,99.87
2016-03-06T08:30:36.438Z,99.99
2016-03-06T08:31:36.410Z,99.99
2016-03-06T08:32:36.382Z,99.99
2016-03-06T08:33:36.368Z,99.99
2016-03-06T08:34:36.340Z,99.96
2016-03-06T08:35:36.312Z,99.99
2016-03-06T08:36:36.283Z,99.99
2016-03-06T08:37:36.254Z,99.99
2016-03-06T08:38:36.227Z,99.99
2016-03-06T08:39:36.198Z,99.99
2016-03-06T08:40:36.168Z,99.91
2016-03-06T08:41:36.141Z,99.99
2016-03-06T08:42:36.112Z,99.73
2016-03-06T08:43:36.099Z,99.99
2016-03-06T08:44:36.071Z,99.99
2016-03-06T08:45:36.042Z,99.99
2016-03-06T08:46:36.014Z,99.99
2016-03-06T08:47:35.984Z,99.73
2016-03-06T08:48:35.972Z,99.54
2016-03-06T08:49:35.943Z,99.35
2016-03-06T08:50:35.914Z,99.16
2016-03-06T08:51:35.887Z,99.35
2016-03-06T08:52:35.858Z,99.54
2016-03-06T08:53:35.829Z,99.44
2016-03-06T08:54:35.816Z,99.35
2016-03-06T08:55:35.788Z,99.35
2016-03-06T08:56:35.759Z,99.54
2016-03-06T08:57:35.730Z,98.68
2016-03-06T08:58:35.702Z,99.35
2016-03-06T08:59:35.689Z,99.73
2016-03-06T09:00:35.661Z,99.54
2016-03-06T09:01:35.632Z,99.82
2016-03-06T09:02:35.603Z,99.54
2016-03-06T09:03:35.575Z,99.73
2016-03-06T09:04:35.562Z,99.63
2016-03-06T09:05:35.532Z,99.97
2016-03-06T09:06:35.505Z,99.77
2016-03-06T09:07:35.476Z,99.3
2016-03-06T09:08:35.448Z,98.92
2016-03-06T09:09:35.419Z,98.73
2016-03-06T09:10:35.406Z,98.54
2016-03-06T09:11:35.377Z,98.54
2016-03-06T09:12:35.349Z,97.92
2016-03-06T09:13:35.320Z,98.3
2016-03-06T09:14:35.292Z,98.11
2016-03-06T09:15:35.279Z,98.21
2016-03-06T09:16:35.250Z,97.74
2016-03-06T09:17:35.223Z,98.11
2016-03-06T09:18:35.193Z,98.49
2016-03-06T09:19:35.164Z,98.4
2016-03-06T09:20:35.137Z,98.49
2016-03-06T09:21:35.123Z,98.21
2016-03-06T09:22:35.094Z,98.4
2016-03-06T09:23:35.066Z,99.26
2016-03-06T09:24:35.037Z,98.49
2016-03-06T09:25:35.009Z,98.44
2016-03-06T09:26:34.980Z,99.01
2016-03-06T09:27:34.967Z,98.97
2016-03-06T09:28:34.938Z,99.58
2016-03-06T09:29:34.910Z,98.73
2016-03-06T09:30:34.882Z,99.16
2016-03-06T09:31:34.853Z,98.87
2016-03-06T09:32:34.825Z,98.97
2016-03-06T09:33:34.796Z,98.78
2016-03-06T09:34:34.783Z,98.87
2016-03-06T09:35:34.755Z,98.97
2016-03-06T09:36:34.726Z,99.11
2016-03-06T09:37:34.697Z,99.77
2016-03-06T09:38:34.669Z,99.68
2016-03-06T09:39:34.640Z,99.54
2016-03-06T09:40:34.612Z,99.44
2016-03-06T09:41:34.583Z,99.54
2016-03-06T09:42:34.555Z,99.63
2016-03-06T09:43:34.542Z,99.16
2016-03-06T09:44:34.512Z,99.44
2016-03-06T09:45:34.485Z,99.35
2016-03-06T09:46:34.456Z,99.54
2016-03-06T09:47:34.427Z,99.63
2016-03-06T09:48:34.399Z,99.63
2016-03-06T09:49:34.370Z,99.82
2016-03-06T09:50:34.342Z,99.82
2016-03-06T09:51:34.329Z,99.99
2016-03-06T09:52:34.300Z,99.99
2016-03-06T09:53:34.272Z,99.91
2016-03-06T09:54:34.243Z,99.99
2016-03-06T09:55:34.214Z,99.99
2016-03-06T09:56:34.186Z,99.87
2016-03-06T09:57:34.158Z,99.21
2016-03-06T09:58:34.145Z,99.58
2016-03-06T09:59:34.116Z,99.11
2016-03-06T10:00:34.087Z,99.3
2016-03-06T10:01:34.059Z,99.02
2016-03-06T10:02:34.030Z,99.58
2016-03-06T10:03:34.001Z,99.58
2016-03-06T10:04:33.989Z,99.99
2016-03-06T10:05:33.960Z,99.87
2016-03-06T10:06:33.932Z,99.97
2016-03-06T10:07:33.903Z,99.58
2016-03-06T10:08:33.890Z,99.21
2016-03-06T10:09:33.862Z,99.02
2016-03-06T10:10:33.833Z,98.73
2016-03-06T10:11:33.804Z,98.92
2016-03-06T10:12:33.776Z,99.21
2016-03-06T10:13:33.763Z,98.92
2016-03-06T10:14:33.734Z,98.59
2016-03-06T10:15:33.707Z,98.69
2016-03-06T10:16:33.677Z,98.4
2016-03-06T10:17:33.664Z,98.31
2016-03-06T10:18:33.636Z,98.79
2016-03-06T10:19:33.607Z,98.4
2016-03-06T10:20:33.592Z,98.21
2016-03-06T10:21:33.609Z,98.5
2016-03-06T10:22:33.534Z,98.4
2016-03-06T10:23:33.506Z,99.54
2016-03-06T10:24:33.493Z,99.26
2016-03-06T10:25:33.464Z,98.45
2016-03-06T10:26:33.436Z,98.55
2016-03-06T10:27:33.423Z,98.55
2016-03-06T10:28:33.394Z,98.74
2016-03-06T10:29:33.366Z,98.07
2016-03-06T10:30:33.353Z,97.88
2016-03-06T10:31:33.324Z,96.74
2016-03-06T10:32:33.297Z,96.93
2016-03-06T10:33:33.299Z,96.84
2016-03-06T10:34:33.254Z,96.84
2016-03-06T10:35:33.242Z,96.55
2016-03-06T10:36:33.213Z,97.03
2016-03-06T10:37:33.184Z,96.45
2016-03-06T10:38:33.155Z,96.45
2016-03-06T10:39:33.143Z,96.65
2016-03-06T10:40:33.114Z,96.45
2016-03-06T10:41:33.101Z,97.12
2016-03-06T10:42:33.073Z,97.64
2016-03-06T10:43:33.044Z,97.41
2016-03-06T10:44:33.015Z,97.5
2016-03-06T10:45:33.002Z,97.88
2016-03-06T10:46:32.974Z,97.5
2016-03-06T10:47:32.945Z,97.5
2016-03-06T10:48:32.933Z,97.69
2016-03-06T10:49:32.904Z,97.74
2016-03-06T10:50:32.875Z,98.07
2016-03-06T10:51:32.847Z,97.88
2016-03-06T10:52:32.833Z,98.07
2016-03-06T10:53:32.806Z,97.97
2016-03-06T10:54:32.776Z,98.17
2016-03-06T10:55:32.764Z,98.45
2016-03-06T10:56:32.736Z,98.93
2016-03-06T10:57:32.706Z,98.64
2016-03-06T10:58:32.694Z,98.45
2016-03-06T10:59:32.665Z,98.45
2016-03-06T11:00:32.636Z,97.97
2016-03-06T11:01:32.624Z,97.69
2016-03-06T11:02:32.595Z,97.5
2016-03-06T11:03:32.567Z,97.69
2016-03-06T11:04:32.553Z,97.5
2016-03-06T11:05:32.525Z,98.17
2016-03-06T11:06:32.497Z,97.97
2016-03-06T11:07:32.624Z,98.17
2016-03-06T11:08:32.454Z,98.74
2016-03-06T11:09:32.427Z,98.45
2016-03-06T11:10:32.413Z,98.64
2016-03-06T11:11:32.385Z,99.5
2016-03-06T11:12:32.356Z,99.36
2016-03-06T11:13:32.343Z,99.16
2016-03-06T11:14:32.315Z,99.36
2016-03-06T11:15:32.287Z,99.16
2016-03-06T11:16:32.273Z,98.79
2016-03-06T11:17:32.245Z,99.74
2016-03-06T11:18:32.216Z,99.36
2016-03-06T11:19:32.204Z,99.26
2016-03-06T11:20:32.190Z,98.97
2016-03-06T11:21:32.146Z,98.69
2016-03-06T11:22:32.134Z,98.41
2016-03-06T11:23:32.104Z,97.74
2016-03-06T11:24:32.076Z,97.55
2016-03-06T11:25:32.063Z,97.64
2016-03-06T11:26:32.035Z,97.45
2016-03-06T11:27:32.022Z,97.64
2016-03-06T11:28:31.992Z,98.03
2016-03-06T11:29:31.981Z,98.03
2016-03-06T11:30:31.952Z,98.31
2016-03-06T11:31:31.922Z,97.83
2016-03-06T11:32:31.911Z,98.41
2016-03-06T11:33:31.881Z,98.5
2016-03-06T11:34:31.853Z,98.03
2016-03-06T11:35:31.841Z,97.93
2016-03-06T11:36:31.811Z,97.79
2016-03-06T11:37:31.789Z,97.17
2016-03-06T11:38:31.760Z,97.08
2016-03-06T11:39:31.748Z,97.83
2016-03-06T11:40:31.719Z,97.83
2016-03-06T11:41:31.830Z,97.55
2016-03-06T11:42:31.678Z,96.69
2016-03-06T11:43:31.649Z,96.98
2016-03-06T11:44:31.651Z,97.17
2016-03-06T11:45:31.608Z,97.88
2016-03-06T11:46:31.579Z,98.08
2016-03-06T11:47:31.566Z,97.98
2016-03-06T11:48:31.538Z,97.88
2016-03-06T11:49:31.524Z,96.65
2016-03-06T11:50:31.496Z,97.13
2016-03-06T11:51:31.482Z,97.6
2016-03-06T11:52:31.454Z,97.41
2016-03-06T11:53:31.441Z,97.41
2016-03-06T11:54:31.413Z,97.69
2016-03-06T11:55:31.384Z,97.69
2016-03-06T11:56:31.371Z,98.36
2016-03-06T11:57:31.343Z,98.27
2016-03-06T11:58:31.314Z,98.08
2016-03-06T11:59:31.301Z,97.93
2016-03-06T12:00:31.273Z,98.6
2016-03-06T12:01:31.259Z,98.22
2016-03-06T12:02:31.232Z,97.93
2016-03-06T12:03:31.218Z,97.74
2016-03-06T12:04:31.190Z,97.93
2016-03-06T12:05:31.176Z,97.08
2016-03-06T12:06:31.147Z,96.41
2016-03-06T12:07:31.136Z,96.79
2016-03-06T12:08:31.106Z,96.6
2016-03-06T12:09:31.094Z,96.22
2016-03-06T12:10:31.065Z,96.22
2016-03-06T12:11:31.052Z,96.31
2016-03-06T12:12:31.024Z,96.51
2016-03-06T12:13:31.011Z,96.31
2016-03-06T12:14:30.982Z,96.89
2016-03-06T12:15:30.969Z,96.79
2016-03-06T12:16:30.941Z,96.79
2016-03-06T12:17:30.927Z,96.17
2016-03-06T12:18:30.899Z,96.51
2016-03-06T12:19:30.885Z,96.41
2016-03-06T12:20:30.857Z,95.84
2016-03-06T12:21:30.844Z,95.46
2016-03-06T12:22:30.816Z,95.65
2016-03-06T12:23:30.803Z,96.03
2016-03-06T12:24:30.775Z,95.75
2016-03-06T12:25:30.762Z,95.89
2016-03-06T12:26:30.732Z,96.22
2016-03-06T12:27:30.721Z,95.7
2016-03-06T12:28:30.692Z,95.84
2016-03-06T12:29:30.678Z,96.12
2016-03-06T12:30:30.650Z,95.94
2016-03-06T12:31:30.638Z,95.84
2016-03-06T12:32:30.609Z,95.56
2016-03-06T12:33:30.595Z,95.65
2016-03-06T12:34:30.567Z,96.22
2016-03-06T12:35:30.554Z,96.31
2016-03-06T12:36:30.525Z,95.65
2016-03-06T12:37:30.497Z,96.22
2016-03-06T12:38:30.484Z,96.98
2016-03-06T12:39:30.456Z,96.31
2016-03-06T12:40:30.442Z,95.65
2016-03-06T12:41:30.414Z,95.75
2016-03-06T12:42:30.401Z,95.94
2016-03-06T12:43:30.372Z,95.65
2016-03-06T12:44:30.360Z,95.94
2016-03-06T12:45:30.329Z,95.36
2016-03-06T12:46:30.304Z,96.22
2016-03-06T12:47:30.278Z,96.03
2016-03-06T12:48:30.237Z,95.84
2016-03-06T12:49:30.196Z,96.22
2016-03-06T12:50:30.171Z,95.94
2016-03-06T12:51:30.138Z,96.41
2016-03-06T12:52:30.121Z,96.79
2016-03-06T12:53:30.088Z,96.51